Four Forks, Louisiana
Current Conditions -  °F | °C
As of 8:56 AM on Wednesday 22 Oct 2014 (Local Time) from KSHV Reporting Station
Clear Clear  
Wind Chill: 64°   Ceiling: Unl
Heat Index: 64°   Visibility: 10mi
Dew Point: 57°   Wind: 0mph
Humidity: 78%   Direction: NA
Pressure: 30.15"   Gusts: NA
Location:  32.1652°N, 93.9629°W
Report Text: KSHV 221356Z 00000KT 10SM CLR 18/14 A3015 RMK AO2 SLP207 T01780139
Loading
Personal Weather Stations






























Interactive Weather Map
Tropical Storm Tracking
New forecast layout! Learn more

10-Day Weather Forecast

Advertisements
Track Severe Weather on mobile